Aktuální počasí v Česku a ve světě - METAR

Seznam meteostanic umístěných nejčasteji na letišti v ČR a ve světě

Vyhledat místa podle abecedy:
A B C D E F G H I J K L M N O P Q R S T U V W X Y Z

Filtrovat:

ID stanice:
a/nebo
Název místa (fulltext):
 
Místo (ID)Naposledy načteno 
Yamoussoukro (DIYO) 29.11.2020 22:00 UTC Zobrazit METAR
DIYO 292200Z 00000KT CAVOK 23/23 Q1013 NOSIG
Yangon (VYYY) 29.11.2020 22:30 UTC Zobrazit METAR
VYYY 292230Z 03003KT 6000 FEW020 24/23 Q1011 NOSIG
Yaounde (FKYS) 29.11.2020 05:00 UTC Zobrazit METAR
FKYS 290500Z 00000KT 6000 SCT003 BKN006 20/20 Q1017 TEMPO 4000 BR
Yerevan (UGEE) Zatím nenačteno  
Reklama


Reklama

Další české internetové stránky (nejen) o počasí najdete v katalogu TOPlist - weby o počasí nebo vyhledejte na internetu, co jste tu na 🌞 Slunečnu ⛅ zatím nenašli:
⭐ Přidat Slunečno.cz do oblíbených | 🏠 Nastavit Slunečno.cz jako HOMEPAGE

⬆️ Posunout stránku nahoru ⬆️
Reklama